createdAt,value
2023-01-19T00:00:44.765Z,936.39
2023-01-19T00:01:44.790Z,936.41
2023-01-19T00:02:44.846Z,936.43
2023-01-19T00:03:44.826Z,936.43
2023-01-19T00:04:44.946Z,936.34
2023-01-19T00:05:44.853Z,936.39
2023-01-19T00:06:44.878Z,936.41
2023-01-19T00:07:44.891Z,936.37
2023-01-19T00:08:44.905Z,936.39
2023-01-19T00:09:44.933Z,936.46
2023-01-19T00:10:44.942Z,936.50
2023-01-19T00:11:44.962Z,936.52
2023-01-19T00:12:44.981Z,936.54
2023-01-19T00:13:44.996Z,936.53
2023-01-19T00:14:45.021Z,936.58
2023-01-19T00:15:45.038Z,936.54
2023-01-19T00:16:45.057Z,936.53
2023-01-19T00:17:45.068Z,936.52
2023-01-19T00:18:45.096Z,936.55
2023-01-19T00:19:45.103Z,936.50
2023-01-19T00:20:45.145Z,936.47
2023-01-19T00:21:45.139Z,936.43
2023-01-19T00:22:45.190Z,936.47
2023-01-19T00:23:45.184Z,936.44
2023-01-19T00:24:45.199Z,936.45
2023-01-19T00:25:45.223Z,936.52
2023-01-19T00:26:45.227Z,936.54
2023-01-19T00:27:45.250Z,936.58
2023-01-19T00:28:45.287Z,936.57
2023-01-19T00:29:45.291Z,936.54
2023-01-19T00:30:45.299Z,936.58
2023-01-19T00:31:45.405Z,936.63
2023-01-19T00:32:45.338Z,936.61
2023-01-19T00:33:45.352Z,936.60
2023-01-19T00:34:45.385Z,936.60
2023-01-19T00:35:45.412Z,936.58
2023-01-19T00:36:45.435Z,936.64
2023-01-19T00:37:45.432Z,936.64
2023-01-19T00:38:45.445Z,936.66
2023-01-19T00:39:45.475Z,936.69
2023-01-19T00:40:45.479Z,936.69
2023-01-19T00:41:45.499Z,936.67
2023-01-19T00:42:45.541Z,936.64
2023-01-19T00:43:45.550Z,936.65
2023-01-19T00:44:45.558Z,936.61
2023-01-19T00:45:45.589Z,936.62
2023-01-19T00:46:45.592Z,936.57
2023-01-19T00:47:45.614Z,936.56
2023-01-19T00:48:45.631Z,936.53
2023-01-19T00:49:45.645Z,936.53
2023-01-19T00:50:45.657Z,936.53
2023-01-19T00:51:45.676Z,936.54
2023-01-19T00:52:45.716Z,936.56
2023-01-19T00:53:45.723Z,936.52
2023-01-19T00:54:45.727Z,936.55
2023-01-19T00:55:45.751Z,936.56
2023-01-19T00:56:45.769Z,936.56
2023-01-19T00:57:45.789Z,936.51
2023-01-19T00:58:45.799Z,936.55
2023-01-19T00:59:45.823Z,936.56
2023-01-19T01:00:45.892Z,936.58
2023-01-19T01:01:46.656Z,936.66
2023-01-19T01:02:46.118Z,936.65
2023-01-19T01:03:45.888Z,936.62
2023-01-19T01:04:45.913Z,936.64
2023-01-19T01:05:45.934Z,936.66
2023-01-19T01:06:45.955Z,936.67
2023-01-19T01:07:45.975Z,936.66
2023-01-19T01:08:46.005Z,936.66
2023-01-19T01:09:46.001Z,936.66
2023-01-19T01:10:46.011Z,936.61
2023-01-19T01:11:46.030Z,936.60
2023-01-19T01:12:54.943Z,936.57
2023-01-19T01:13:46.074Z,936.63
2023-01-19T01:14:46.092Z,936.64
2023-01-19T01:15:46.106Z,936.64
2023-01-19T01:16:46.133Z,936.69
2023-01-19T01:17:46.147Z,936.69
2023-01-19T01:18:46.154Z,936.74
2023-01-19T01:19:46.171Z,936.72
2023-01-19T01:20:46.188Z,936.74
2023-01-19T01:21:46.214Z,936.78
2023-01-19T01:22:46.230Z,936.76
2023-01-19T01:23:46.251Z,936.80
2023-01-19T01:24:46.283Z,936.83
2023-01-19T01:25:46.284Z,936.84
2023-01-19T01:26:46.304Z,936.83
2023-01-19T01:27:46.321Z,936.89
2023-01-19T01:28:46.337Z,936.90
2023-01-19T01:29:46.357Z,936.90
2023-01-19T01:30:46.367Z,936.88
2023-01-19T01:31:46.489Z,936.90
2023-01-19T01:32:46.415Z,936.89
2023-01-19T01:33:46.419Z,936.91
2023-01-19T01:34:46.449Z,936.90
2023-01-19T01:35:46.458Z,936.89
2023-01-19T01:36:46.472Z,936.85
2023-01-19T01:37:46.498Z,936.85
2023-01-19T01:38:46.521Z,936.87
2023-01-19T01:39:46.532Z,936.85
2023-01-19T01:40:46.575Z,936.86
2023-01-19T01:41:46.571Z,936.85
2023-01-19T01:42:46.587Z,936.82
2023-01-19T01:43:46.606Z,936.79
2023-01-19T01:44:46.615Z,936.72
2023-01-19T01:45:46.672Z,936.70
2023-01-19T01:46:46.657Z,936.70
2023-01-19T01:47:46.666Z,936.68
2023-01-19T01:48:46.690Z,936.64
2023-01-19T01:49:46.707Z,936.63
2023-01-19T01:50:46.735Z,936.64
2023-01-19T01:51:46.740Z,936.63
2023-01-19T01:53:07.232Z,936.62
2023-01-19T01:53:46.772Z,936.62
2023-01-19T01:54:46.802Z,936.62
2023-01-19T01:55:46.813Z,936.57
2023-01-19T01:56:46.849Z,936.57
2023-01-19T01:57:46.850Z,936.53
2023-01-19T01:58:46.861Z,936.51
2023-01-19T01:59:46.880Z,936.54
2023-01-19T02:00:46.938Z,936.51
2023-01-19T02:01:47.042Z,936.51
2023-01-19T02:02:46.946Z,936.50
2023-01-19T02:03:46.950Z,936.47
2023-01-19T02:04:46.973Z,936.44
2023-01-19T02:05:46.995Z,936.42
2023-01-19T02:06:47.010Z,936.39
2023-01-19T02:07:47.020Z,936.40
2023-01-19T02:08:47.052Z,936.34
2023-01-19T02:09:47.062Z,936.34
2023-01-19T02:10:47.082Z,936.34
2023-01-19T02:11:47.090Z,936.30
2023-01-19T02:12:47.137Z,936.35
2023-01-19T02:13:47.133Z,936.37
2023-01-19T02:14:47.148Z,936.35
2023-01-19T02:15:47.164Z,936.38
2023-01-19T02:16:47.196Z,936.29
2023-01-19T02:17:47.209Z,936.35
2023-01-19T02:18:47.222Z,936.33
2023-01-19T02:19:47.231Z,936.33
2023-01-19T02:20:47.255Z,936.30
2023-01-19T02:21:47.276Z,936.34
2023-01-19T02:22:47.292Z,936.35
2023-01-19T02:23:48.122Z,936.36
2023-01-19T02:24:47.327Z,936.36
2023-01-19T02:25:47.343Z,936.41
2023-01-19T02:26:47.361Z,936.38
2023-01-19T02:27:47.372Z,936.37
2023-01-19T02:28:47.422Z,936.41
2023-01-19T02:29:47.416Z,936.38
2023-01-19T02:30:47.558Z,936.41
2023-01-19T02:31:47.451Z,936.44
2023-01-19T02:32:47.476Z,936.42
2023-01-19T02:33:47.475Z,936.46
2023-01-19T02:34:47.497Z,936.46
2023-01-19T02:35:47.511Z,936.48
2023-01-19T02:36:47.537Z,936.49
2023-01-19T02:37:47.553Z,936.45
2023-01-19T02:38:47.573Z,936.48
2023-01-19T02:39:47.592Z,936.48
2023-01-19T02:40:47.601Z,936.46
2023-01-19T02:41:47.618Z,936.46
2023-01-19T02:42:47.639Z,936.42
2023-01-19T02:43:47.655Z,936.44
2023-01-19T02:44:47.781Z,936.42
2023-01-19T02:45:47.720Z,936.45
2023-01-19T02:46:47.714Z,936.45
2023-01-19T02:47:47.721Z,936.41
2023-01-19T02:48:47.738Z,936.45
2023-01-19T02:49:47.759Z,936.44
2023-01-19T02:50:47.775Z,936.41
2023-01-19T02:51:47.813Z,936.43
2023-01-19T02:52:47.817Z,936.37
2023-01-19T02:53:47.834Z,936.37
2023-01-19T02:54:47.854Z,936.37
2023-01-19T02:55:47.864Z,936.35
2023-01-19T02:56:47.886Z,936.34
2023-01-19T02:57:47.932Z,936.29
2023-01-19T02:58:47.923Z,936.26
2023-01-19T02:59:47.941Z,936.21
2023-01-19T03:00:48.094Z,936.22
2023-01-19T03:01:48.066Z,936.24
2023-01-19T03:02:48.016Z,936.20
2023-01-19T03:03:48.014Z,936.25
2023-01-19T03:04:48.025Z,936.21
2023-01-19T03:05:48.039Z,936.23
2023-01-19T03:06:48.056Z,936.22
2023-01-19T03:07:48.105Z,936.16
2023-01-19T03:08:48.093Z,936.22
2023-01-19T03:09:48.113Z,936.25
2023-01-19T03:10:48.140Z,936.24
2023-01-19T03:11:48.157Z,936.28
2023-01-19T03:12:48.167Z,936.29
2023-01-19T03:13:48.182Z,936.27
2023-01-19T03:14:48.197Z,936.26
2023-01-19T03:15:48.283Z,936.26
2023-01-19T03:16:48.381Z,936.20
2023-01-19T03:17:48.247Z,936.20
2023-01-19T03:18:48.275Z,936.15
2023-01-19T03:19:48.295Z,936.14
2023-01-19T03:20:48.298Z,936.16
2023-01-19T03:21:48.323Z,936.13
2023-01-19T03:22:48.334Z,936.08
2023-01-19T03:23:48.364Z,936.07
2023-01-19T03:24:48.392Z,936.09
2023-01-19T03:25:48.391Z,936.02
2023-01-19T03:26:48.404Z,936.05
2023-01-19T03:27:48.431Z,936.05
2023-01-19T03:28:48.438Z,936.09
2023-01-19T03:29:48.463Z,936.08
2023-01-19T03:30:48.524Z,936.07
2023-01-19T03:31:48.499Z,936.07
2023-01-19T03:32:48.600Z,936.07
2023-01-19T03:33:48.530Z,936.05
2023-01-19T03:34:48.544Z,936.01
2023-01-19T03:35:48.586Z,936.03
2023-01-19T03:36:48.583Z,936.00
2023-01-19T03:37:48.601Z,935.96
2023-01-19T03:38:48.619Z,935.90
2023-01-19T03:39:48.643Z,935.88
2023-01-19T03:40:48.663Z,935.87
2023-01-19T03:41:48.687Z,935.84
2023-01-19T03:42:48.683Z,935.82
2023-01-19T03:43:48.701Z,935.79
2023-01-19T03:44:48.725Z,935.77
2023-01-19T03:45:48.818Z,935.74
2023-01-19T03:46:48.758Z,935.70
2023-01-19T03:47:48.782Z,935.72
2023-01-19T03:48:48.810Z,935.68
2023-01-19T03:49:48.811Z,935.69
2023-01-19T03:50:48.822Z,935.63
2023-01-19T03:51:48.850Z,935.62
2023-01-19T03:52:48.863Z,935.63
2023-01-19T03:53:48.874Z,935.60
2023-01-19T03:54:48.892Z,935.64
2023-01-19T03:55:48.911Z,935.59
2023-01-19T03:56:48.924Z,935.53
2023-01-19T03:57:48.944Z,935.53
2023-01-19T03:58:48.968Z,935.54
2023-01-19T03:59:48.979Z,935.48
2023-01-19T04:00:49.032Z,935.47
2023-01-19T04:01:49.120Z,935.44
2023-01-19T04:02:49.120Z,935.47
2023-01-19T04:03:49.053Z,935.44
2023-01-19T04:04:49.090Z,935.44
2023-01-19T04:05:49.091Z,935.42
2023-01-19T04:06:49.099Z,935.42
2023-01-19T04:07:49.126Z,935.38
2023-01-19T04:08:49.141Z,935.35
2023-01-19T04:09:49.150Z,935.35
2023-01-19T04:10:49.172Z,935.33
2023-01-19T04:11:49.194Z,935.33
2023-01-19T04:12:49.217Z,935.30
2023-01-19T04:13:49.230Z,935.27
2023-01-19T04:14:49.249Z,935.25
2023-01-19T04:15:49.310Z,935.26
2023-01-19T04:16:49.281Z,935.27
2023-01-19T04:17:49.291Z,935.27
2023-01-19T04:18:49.314Z,935.19
2023-01-19T04:19:49.332Z,935.13
2023-01-19T04:20:49.369Z,935.11
2023-01-19T04:21:49.360Z,935.11
2023-01-19T04:22:49.386Z,935.05
2023-01-19T04:23:49.395Z,935.04
2023-01-19T04:24:49.410Z,935.06
2023-01-19T04:25:49.437Z,935.11
2023-01-19T04:26:49.450Z,935.13
2023-01-19T04:27:49.473Z,935.11
2023-01-19T04:28:49.489Z,935.16
2023-01-19T04:29:49.512Z,935.17
2023-01-19T04:30:49.665Z,935.19
2023-01-19T04:31:49.557Z,935.15
2023-01-19T04:32:49.552Z,935.18
2023-01-19T04:33:49.569Z,935.15
2023-01-19T04:34:49.586Z,935.11
2023-01-19T04:35:49.610Z,935.14
2023-01-19T04:36:49.645Z,935.10
2023-01-19T04:37:49.637Z,935.10
2023-01-19T04:38:49.655Z,935.07
2023-01-19T04:39:49.673Z,935.05
2023-01-19T04:40:49.688Z,935.01
2023-01-19T04:41:49.714Z,934.99
2023-01-19T04:42:49.725Z,934.94
2023-01-19T04:43:49.752Z,934.96
2023-01-19T04:44:49.767Z,935.00
2023-01-19T04:45:49.783Z,934.97
2023-01-19T04:46:49.893Z,934.98
2023-01-19T04:47:49.824Z,934.97
2023-01-19T04:48:49.850Z,934.96
2023-01-19T04:49:49.853Z,934.96
2023-01-19T04:50:49.863Z,934.96
2023-01-19T04:51:49.885Z,934.97
2023-01-19T04:52:49.941Z,934.90
2023-01-19T04:53:49.919Z,934.89
2023-01-19T04:54:49.940Z,934.90
2023-01-19T04:55:49.950Z,934.91
2023-01-19T04:56:49.979Z,934.89
2023-01-19T04:57:49.983Z,934.91
2023-01-19T04:58:50.003Z,934.89
2023-01-19T04:59:50.030Z,934.85
2023-01-19T05:00:50.115Z,934.85
2023-01-19T05:01:50.115Z,934.87
2023-01-19T05:02:50.162Z,934.86
2023-01-19T05:03:50.095Z,934.84
2023-01-19T05:04:50.114Z,934.81
2023-01-19T05:05:50.128Z,934.81
2023-01-19T05:06:50.149Z,934.78
2023-01-19T05:07:50.158Z,934.76
2023-01-19T05:08:50.188Z,934.74
2023-01-19T05:09:50.188Z,934.78
2023-01-19T05:10:50.216Z,934.77
2023-01-19T05:11:50.224Z,934.73
2023-01-19T05:12:50.243Z,934.74
2023-01-19T05:13:51.047Z,934.76
2023-01-19T05:14:50.282Z,934.76
2023-01-19T05:15:50.360Z,934.76
2023-01-19T05:16:50.309Z,934.84
2023-01-19T05:17:50.336Z,934.82
2023-01-19T05:18:50.354Z,934.79
2023-01-19T05:19:50.371Z,934.76
2023-01-19T05:20:50.387Z,934.80
2023-01-19T05:21:50.401Z,934.81
2023-01-19T05:22:50.445Z,934.77
2023-01-19T05:23:50.439Z,934.75
2023-01-19T05:24:50.472Z,934.75
2023-01-19T05:25:50.465Z,934.78
2023-01-19T05:26:50.483Z,934.78
2023-01-19T05:27:50.503Z,934.76
2023-01-19T05:28:50.514Z,934.79
2023-01-19T05:29:50.534Z,934.79
2023-01-19T05:30:50.567Z,934.76
2023-01-19T05:31:50.673Z,934.76
2023-01-19T05:32:50.593Z,934.79
2023-01-19T05:33:50.609Z,934.75
2023-01-19T05:34:50.625Z,934.76
2023-01-19T05:35:50.644Z,934.77
2023-01-19T05:36:50.660Z,934.75
2023-01-19T05:37:50.680Z,934.71
2023-01-19T05:38:50.701Z,934.66
2023-01-19T05:39:50.715Z,934.66
2023-01-19T05:40:50.744Z,934.61
2023-01-19T05:41:50.745Z,934.57
2023-01-19T05:42:50.773Z,934.58
2023-01-19T05:43:50.783Z,934.59
2023-01-19T05:44:50.792Z,934.60
2023-01-19T05:45:50.814Z,934.54
2023-01-19T05:46:50.902Z,934.54
2023-01-19T05:47:50.843Z,934.54
2023-01-19T05:48:50.859Z,934.57
2023-01-19T05:49:50.886Z,934.55
2023-01-19T05:50:50.896Z,934.56
2023-01-19T05:51:50.922Z,934.55
2023-01-19T05:52:50.936Z,934.56
2023-01-19T05:53:50.952Z,934.52
2023-01-19T05:54:50.963Z,934.53
2023-01-19T05:55:50.980Z,934.49
2023-01-19T05:56:51.032Z,934.47
2023-01-19T05:57:51.014Z,934.46
2023-01-19T05:58:51.032Z,934.47
2023-01-19T05:59:51.058Z,934.46
2023-01-19T06:00:51.121Z,934.43
2023-01-19T06:01:51.127Z,934.39
2023-01-19T06:02:51.152Z,934.40
2023-01-19T06:03:51.124Z,934.42
2023-01-19T06:04:51.140Z,934.44
2023-01-19T06:05:51.175Z,934.42
2023-01-19T06:06:51.180Z,934.43
2023-01-19T06:07:51.185Z,934.44
2023-01-19T06:08:51.203Z,934.47
2023-01-19T06:09:51.227Z,934.43
2023-01-19T06:10:51.242Z,934.44
2023-01-19T06:11:51.262Z,934.40
2023-01-19T06:12:51.286Z,934.37
2023-01-19T06:13:51.296Z,934.36
2023-01-19T06:14:51.310Z,934.34
2023-01-19T06:15:51.333Z,934.31
2023-01-19T06:16:51.349Z,934.34
2023-01-19T06:17:51.375Z,934.31
2023-01-19T06:18:51.382Z,934.35
2023-01-19T06:19:51.392Z,934.36
2023-01-19T06:20:51.407Z,934.36
2023-01-19T06:21:51.424Z,934.35
2023-01-19T06:22:51.458Z,934.32
2023-01-19T06:23:51.471Z,934.34
2023-01-19T06:24:51.484Z,934.31
2023-01-19T06:25:51.502Z,934.31
2023-01-19T06:26:51.525Z,934.28
2023-01-19T06:27:51.527Z,934.26
2023-01-19T06:28:51.566Z,934.26
2023-01-19T06:29:51.568Z,934.24
2023-01-19T06:30:51.632Z,934.26
2023-01-19T06:31:51.655Z,934.27
2023-01-19T06:32:51.612Z,934.30
2023-01-19T06:33:51.631Z,934.27
2023-01-19T06:34:53.972Z,934.23
2023-01-19T06:35:51.685Z,934.26
2023-01-19T06:36:51.687Z,934.22
2023-01-19T06:37:51.707Z,934.18
2023-01-19T06:38:51.719Z,934.17
2023-01-19T06:39:51.739Z,934.17
2023-01-19T06:40:51.754Z,934.14
2023-01-19T06:41:51.772Z,934.13
2023-01-19T06:42:51.790Z,934.14
2023-01-19T06:43:51.819Z,934.11
2023-01-19T06:44:51.840Z,934.15
2023-01-19T06:45:51.858Z,934.14
2023-01-19T06:46:51.857Z,934.16
2023-01-19T06:47:51.870Z,934.15
2023-01-19T06:48:51.909Z,934.18
2023-01-19T06:49:51.919Z,934.14
2023-01-19T06:50:51.941Z,934.15
2023-01-19T06:51:51.948Z,934.13
2023-01-19T06:52:51.959Z,934.11
2023-01-19T06:53:51.996Z,934.08
2023-01-19T06:54:51.998Z,934.13
2023-01-19T06:55:52.009Z,934.07
2023-01-19T06:56:52.025Z,934.04
2023-01-19T06:57:52.043Z,934.04
2023-01-19T06:58:52.064Z,934.03
2023-01-19T06:59:52.075Z,934.00
2023-01-19T07:00:52.276Z,933.97
2023-01-19T07:01:52.192Z,934.00
2023-01-19T07:02:52.156Z,933.97
2023-01-19T07:03:52.149Z,934.01
2023-01-19T07:04:52.167Z,933.98
2023-01-19T07:05:52.184Z,933.97
2023-01-19T07:06:52.202Z,934.00
2023-01-19T07:07:52.211Z,934.00
2023-01-19T07:08:52.255Z,933.97
2023-01-19T07:09:53.804Z,933.97
2023-01-19T07:11:26.217Z,933.97
2023-01-19T07:11:52.276Z,933.97
2023-01-19T07:12:52.294Z,933.93
2023-01-19T07:13:52.311Z,933.92
2023-01-19T07:14:52.330Z,933.90
2023-01-19T07:15:52.346Z,933.88
2023-01-19T07:16:52.427Z,933.86
2023-01-19T07:17:52.387Z,933.90
2023-01-19T07:18:52.439Z,933.85
2023-01-19T07:19:52.412Z,933.85
2023-01-19T07:20:52.430Z,933.85
2023-01-19T07:21:52.450Z,933.85
2023-01-19T07:22:52.464Z,933.83
2023-01-19T07:23:52.485Z,933.89
2023-01-19T07:24:52.501Z,933.86
2023-01-19T07:25:52.521Z,933.87
2023-01-19T07:26:52.536Z,933.88
2023-01-19T07:27:52.562Z,933.90
2023-01-19T07:28:52.579Z,933.90
2023-01-19T07:29:52.590Z,933.86
2023-01-19T07:30:52.715Z,933.85
2023-01-19T07:31:52.668Z,933.80
2023-01-19T07:32:52.660Z,933.81
2023-01-19T07:33:53.265Z,933.82
2023-01-19T07:34:52.674Z,933.83
2023-01-19T07:35:52.692Z,933.90
2023-01-19T07:36:52.702Z,933.92
2023-01-19T07:37:52.720Z,934.00
2023-01-19T07:38:52.963Z,934.02
2023-01-19T07:39:52.763Z,934.03
2023-01-19T07:40:52.778Z,934.09
2023-01-19T07:41:52.794Z,934.09
2023-01-19T07:42:52.815Z,934.08
2023-01-19T07:43:52.831Z,934.11
2023-01-19T07:44:52.836Z,934.06
2023-01-19T07:45:52.995Z,934.11
2023-01-19T07:46:52.878Z,934.05
2023-01-19T07:47:52.889Z,934.07
2023-01-19T07:48:52.949Z,934.01
2023-01-19T07:49:52.932Z,933.96
2023-01-19T07:50:52.952Z,933.92
2023-01-19T07:51:52.965Z,933.94
2023-01-19T07:52:52.976Z,933.95
2023-01-19T07:53:52.998Z,933.99
2023-01-19T07:54:53.007Z,934.05
2023-01-19T07:55:53.031Z,934.07
2023-01-19T07:56:53.040Z,934.08
2023-01-19T07:57:53.065Z,934.11
2023-01-19T07:58:53.082Z,934.15
2023-01-19T07:59:53.091Z,934.16
2023-01-19T08:00:53.220Z,934.19
2023-01-19T08:01:53.356Z,934.21
2023-01-19T08:02:53.149Z,934.23
2023-01-19T08:03:53.165Z,934.21
2023-01-19T08:04:53.304Z,934.23
2023-01-19T08:05:53.197Z,934.29
2023-01-19T08:06:53.207Z,934.28
2023-01-19T08:07:54.188Z,934.30
2023-01-19T08:08:53.252Z,934.32
2023-01-19T08:09:53.267Z,934.38
2023-01-19T08:10:53.285Z,934.36
2023-01-19T08:11:53.293Z,934.36
2023-01-19T08:12:53.312Z,934.39
2023-01-19T08:13:53.335Z,934.41
2023-01-19T08:14:53.354Z,934.43
2023-01-19T08:15:53.479Z,934.44
2023-01-19T08:16:53.378Z,934.43
2023-01-19T08:17:53.404Z,934.50
2023-01-19T08:18:53.410Z,934.48
2023-01-19T08:19:53.428Z,934.47
2023-01-19T08:20:53.479Z,934.49
2023-01-19T08:21:53.468Z,934.49
2023-01-19T08:22:53.479Z,934.50
2023-01-19T08:23:53.530Z,934.52
2023-01-19T08:24:53.511Z,934.53
2023-01-19T08:25:53.553Z,934.55
2023-01-19T08:26:53.547Z,934.57
2023-01-19T08:27:53.561Z,934.58
2023-01-19T08:28:53.580Z,934.57
2023-01-19T08:29:53.613Z,934.57
2023-01-19T08:30:53.831Z,934.56
2023-01-19T08:31:53.751Z,934.53
2023-01-19T08:32:53.655Z,934.55
2023-01-19T08:33:53.664Z,934.53
2023-01-19T08:34:53.692Z,934.58
2023-01-19T08:35:53.722Z,934.59
2023-01-19T08:36:53.739Z,934.61
2023-01-19T08:37:53.730Z,934.61
2023-01-19T08:38:53.766Z,934.65
2023-01-19T08:39:53.764Z,934.63
2023-01-19T08:40:53.791Z,934.65
2023-01-19T08:41:53.806Z,934.62
2023-01-19T08:42:53.819Z,934.63
2023-01-19T08:43:53.840Z,934.61
2023-01-19T08:44:58.027Z,934.61
2023-01-19T08:45:53.865Z,934.62
2023-01-19T08:46:53.889Z,934.62
2023-01-19T08:47:53.908Z,934.69
2023-01-19T08:48:53.917Z,934.71
2023-01-19T08:49:53.949Z,934.71
2023-01-19T08:50:53.952Z,934.76
2023-01-19T08:51:53.983Z,934.73
2023-01-19T08:52:54.078Z,934.75
2023-01-19T08:53:54.004Z,934.75
2023-01-19T08:54:54.019Z,934.77
2023-01-19T08:55:54.036Z,934.78
2023-01-19T08:56:54.049Z,934.79
2023-01-19T08:57:54.070Z,934.82
2023-01-19T08:59:08.079Z,934.81
2023-01-19T08:59:54.128Z,934.83
2023-01-19T09:00:54.180Z,934.85
2023-01-19T09:01:54.325Z,934.85
2023-01-19T09:02:54.189Z,934.88
2023-01-19T09:03:54.169Z,934.87
2023-01-19T09:04:54.211Z,934.95
2023-01-19T09:05:54.221Z,934.96
2023-01-19T09:06:54.232Z,934.99
2023-01-19T09:07:54.248Z,934.98
2023-01-19T09:08:54.281Z,934.97
2023-01-19T09:09:54.274Z,934.98
2023-01-19T09:10:54.294Z,935.00
2023-01-19T09:11:54.311Z,934.98
2023-01-19T09:12:54.317Z,935.00
2023-01-19T09:13:54.333Z,935.01
2023-01-19T09:14:54.390Z,935.03
2023-01-19T09:15:54.397Z,935.00
2023-01-19T09:16:54.388Z,935.05
2023-01-19T09:17:54.402Z,935.10
2023-01-19T09:18:54.422Z,935.09
2023-01-19T09:19:54.438Z,935.08
2023-01-19T09:20:54.453Z,935.09
2023-01-19T09:21:54.477Z,935.08
2023-01-19T09:22:54.494Z,935.10
2023-01-19T09:23:54.510Z,935.12
2023-01-19T09:24:54.558Z,935.14
2023-01-19T09:25:54.546Z,935.14
2023-01-19T09:26:54.558Z,935.13
2023-01-19T09:27:54.570Z,935.13
2023-01-19T09:28:54.609Z,935.12
2023-01-19T09:29:54.607Z,935.13
2023-01-19T09:30:54.749Z,935.16
2023-01-19T09:31:54.770Z,935.12
2023-01-19T09:32:54.659Z,935.12
2023-01-19T09:33:54.674Z,935.15
2023-01-19T09:34:54.689Z,935.15
2023-01-19T09:35:54.710Z,935.19
2023-01-19T09:36:54.742Z,935.20
2023-01-19T09:37:54.739Z,935.20
2023-01-19T09:38:54.760Z,935.20
2023-01-19T09:39:54.825Z,935.17
2023-01-19T09:40:54.817Z,935.19
2023-01-19T09:41:54.804Z,935.21
2023-01-19T09:42:54.823Z,935.17
2023-01-19T09:43:54.844Z,935.20
2023-01-19T09:44:54.868Z,935.18
2023-01-19T09:45:54.888Z,935.18
2023-01-19T09:46:54.895Z,935.16
2023-01-19T09:47:54.914Z,935.16
2023-01-19T09:48:54.931Z,935.12
2023-01-19T09:49:54.956Z,935.12
2023-01-19T09:50:54.955Z,935.12
2023-01-19T09:51:54.979Z,935.13
2023-01-19T09:52:55.005Z,935.17
2023-01-19T09:53:55.044Z,935.18
2023-01-19T09:54:55.021Z,935.22
2023-01-19T09:55:55.047Z,935.22
2023-01-19T09:56:55.081Z,935.22
2023-01-19T09:57:55.072Z,935.26
2023-01-19T09:58:55.087Z,935.23
2023-01-19T09:59:55.105Z,935.26
2023-01-19T10:00:55.251Z,935.29
2023-01-19T10:01:55.237Z,935.29
2023-01-19T10:02:55.253Z,935.32
2023-01-19T10:03:55.182Z,935.31
2023-01-19T10:04:55.189Z,935.30
2023-01-19T10:05:55.216Z,935.33
2023-01-19T10:06:55.223Z,935.33
2023-01-19T10:07:55.241Z,935.34
2023-01-19T10:08:55.261Z,935.35
2023-01-19T10:09:55.281Z,935.36
2023-01-19T10:10:55.297Z,935.33
2023-01-19T10:11:55.313Z,935.36
2023-01-19T10:12:55.368Z,935.40
2023-01-19T10:13:55.361Z,935.39
2023-01-19T10:14:55.357Z,935.40
2023-01-19T10:15:55.443Z,935.35
2023-01-19T10:16:55.396Z,935.38
2023-01-19T10:17:55.414Z,935.39
2023-01-19T10:18:55.428Z,935.35
2023-01-19T10:19:55.440Z,935.37
2023-01-19T10:20:55.496Z,935.38
2023-01-19T10:21:55.471Z,935.40
2023-01-19T10:22:55.490Z,935.42
2023-01-19T10:23:55.510Z,935.42
2023-01-19T10:24:55.519Z,935.43
2023-01-19T10:25:55.633Z,935.41
2023-01-19T10:26:55.575Z,935.41
2023-01-19T10:27:55.586Z,935.37
2023-01-19T10:28:55.606Z,935.38
2023-01-19T10:29:55.624Z,935.41
2023-01-19T10:30:55.699Z,935.42
2023-01-19T10:31:55.710Z,935.44
2023-01-19T10:32:55.708Z,935.47
2023-01-19T10:33:55.681Z,935.48
2023-01-19T10:34:55.704Z,935.49
2023-01-19T10:35:55.705Z,935.49
2023-01-19T10:36:55.724Z,935.52
2023-01-19T10:37:55.738Z,935.51
2023-01-19T10:38:55.803Z,935.53
2023-01-19T10:39:55.776Z,935.51
2023-01-19T10:40:55.858Z,935.50
2023-01-19T10:41:55.823Z,935.48
2023-01-19T10:42:55.831Z,935.51
2023-01-19T10:43:55.845Z,935.56
2023-01-19T10:44:55.934Z,935.53
2023-01-19T10:45:55.931Z,935.55
2023-01-19T10:46:55.898Z,935.54
2023-01-19T10:47:55.990Z,935.53
2023-01-19T10:48:55.964Z,935.54
2023-01-19T10:49:55.938Z,935.57
2023-01-19T10:50:55.958Z,935.56
2023-01-19T10:51:56.029Z,935.56
2023-01-19T10:52:55.997Z,935.56
2023-01-19T10:53:56.040Z,935.55
2023-01-19T10:54:56.032Z,935.55
2023-01-19T10:55:56.085Z,935.54
2023-01-19T10:56:56.151Z,935.52
2023-01-19T10:57:56.140Z,935.53
2023-01-19T10:58:56.096Z,935.55
2023-01-19T10:59:56.161Z,935.56
2023-01-19T11:00:56.369Z,935.58
2023-01-19T11:01:56.364Z,935.63
2023-01-19T11:02:56.339Z,935.60
2023-01-19T11:03:56.267Z,935.64
2023-01-19T11:04:56.274Z,935.62
2023-01-19T11:05:56.211Z,935.63
2023-01-19T11:06:56.229Z,935.64
2023-01-19T11:07:56.257Z,935.62
2023-01-19T11:08:56.254Z,935.62
2023-01-19T11:09:56.277Z,935.57
2023-01-19T11:10:56.297Z,935.62
2023-01-19T11:11:56.310Z,935.62
2023-01-19T11:12:56.328Z,935.67
2023-01-19T11:13:56.339Z,935.62
2023-01-19T11:14:56.365Z,935.66
2023-01-19T11:15:56.379Z,935.69
2023-01-19T11:16:56.439Z,935.67
2023-01-19T11:17:56.403Z,935.70
2023-01-19T11:18:56.432Z,935.75
2023-01-19T11:19:56.448Z,935.73
2023-01-19T11:20:56.467Z,935.77
2023-01-19T11:21:56.477Z,935.76
2023-01-19T11:22:56.490Z,935.74
2023-01-19T11:23:56.521Z,935.77
2023-01-19T11:24:56.530Z,935.77
2023-01-19T11:25:56.536Z,935.74
2023-01-19T11:26:56.568Z,935.73
2023-01-19T11:27:56.578Z,935.75
2023-01-19T11:28:56.601Z,935.71
2023-01-19T11:29:56.605Z,935.75
2023-01-19T11:30:56.649Z,935.71
2023-01-19T11:31:56.668Z,935.70
2023-01-19T11:32:56.689Z,935.70
2023-01-19T11:33:56.692Z,935.71
2023-01-19T11:34:56.698Z,935.73
2023-01-19T11:35:56.717Z,935.72
2023-01-19T11:36:56.720Z,935.74
2023-01-19T11:37:56.739Z,935.73
2023-01-19T11:38:56.762Z,935.72
2023-01-19T11:39:56.771Z,935.74
2023-01-19T11:40:56.788Z,935.67
2023-01-19T11:41:56.809Z,935.69
2023-01-19T11:42:56.824Z,935.68
2023-01-19T11:43:56.844Z,935.65
2023-01-19T11:44:56.862Z,935.69
2023-01-19T11:45:56.928Z,935.72
2023-01-19T11:46:56.895Z,935.72
2023-01-19T11:47:56.909Z,935.74
2023-01-19T11:48:56.960Z,935.73
2023-01-19T11:49:56.949Z,935.77
2023-01-19T11:50:56.971Z,935.78
2023-01-19T11:51:56.969Z,935.80
2023-01-19T11:52:56.987Z,935.78
2023-01-19T11:53:57.019Z,935.77
2023-01-19T11:54:57.028Z,935.79
2023-01-19T11:55:57.042Z,935.77
2023-01-19T11:56:57.081Z,935.77
2023-01-19T11:57:57.076Z,935.74
2023-01-19T11:58:57.094Z,935.76
2023-01-19T11:59:57.104Z,935.75
2023-01-19T12:00:57.150Z,935.73
2023-01-19T12:01:57.149Z,935.75
2023-01-19T12:02:57.154Z,935.74
2023-01-19T12:03:57.182Z,935.73
2023-01-19T12:04:57.218Z,935.76
2023-01-19T12:05:57.204Z,935.74
2023-01-19T12:06:57.226Z,935.71
2023-01-19T12:07:57.245Z,935.74
2023-01-19T12:08:57.265Z,935.73
2023-01-19T12:09:57.268Z,935.74
2023-01-19T12:10:57.290Z,935.71
2023-01-19T12:11:57.303Z,935.70
2023-01-19T12:12:57.330Z,935.71
2023-01-19T12:13:57.335Z,935.70
2023-01-19T12:14:57.353Z,935.68
2023-01-19T12:15:57.388Z,935.70
2023-01-19T12:16:57.391Z,935.66
2023-01-19T12:17:57.402Z,935.68
2023-01-19T12:18:57.428Z,935.68
2023-01-19T12:19:57.461Z,935.69
2023-01-19T12:20:57.519Z,935.67
2023-01-19T12:21:57.469Z,935.67
2023-01-19T12:22:59.520Z,935.64
2023-01-19T12:23:57.584Z,935.64
2023-01-19T12:24:57.528Z,935.65
2023-01-19T12:25:58.178Z,935.66
2023-01-19T12:26:57.579Z,935.67
2023-01-19T12:27:57.572Z,935.70
2023-01-19T12:28:57.593Z,935.69